Time;durP1;ratioP1;P1;durP2;ratioP2;P2;SDS_P1;SDS_P2;PMS_P1;PMS_P2;Temp;Humidity;BMP_temperature;BMP_pressure;BME280_temperature;BME280_humidity;BME280_pressure;Samples;Min_cycle;Max_cycle;Signal;HPM_P1;HPM_P2
2023/09/13 00:01:47;;;;;;;24.85;22.35;;;;;;;19.01;100.00;101219.00;5049462;28;20119;-58
2023/09/13 00:04:13;;;;;;;27.83;24.85;;;;;;;18.96;100.00;101218.66;5056638;28;20178;-55
2023/09/13 00:06:39;;;;;;;26.42;23.73;;;;;;;18.96;100.00;101209.75;5046065;28;20064;-55
2023/09/13 00:09:06;;;;;;;27.33;23.88;;;;;;;18.95;100.00;101216.97;5053397;28;20024;-58
2023/09/13 00:11:31;;;;;;;26.80;22.35;;;;;;;18.93;100.00;101208.19;5051348;28;20060;-58
2023/09/13 00:13:57;;;;;;;26.08;23.23;;;;;;;18.93;100.00;101213.59;5054523;28;20058;-57
2023/09/13 00:16:22;;;;;;;25.57;22.70;;;;;;;18.94;100.00;101215.28;5049004;28;20057;-58
2023/09/13 00:18:47;;;;;;;28.35;23.15;;;;;;;18.91;100.00;101212.91;5056434;28;20275;-58
2023/09/13 00:21:13;;;;;;;25.70;22.17;;;;;;;18.95;100.00;101216.13;5047225;28;20017;-58
2023/09/13 00:23:38;;;;;;;26.92;23.13;;;;;;;18.89;100.00;101217.63;5052301;28;20029;-58
2023/09/13 00:26:04;;;;;;;27.48;23.75;;;;;;;18.86;100.00;101220.63;5057565;28;20031;-58
2023/09/13 00:28:29;;;;;;;26.85;23.92;;;;;;;18.85;100.00;101216.25;5049872;28;20040;-57
2023/09/13 00:30:55;;;;;;;27.98;24.08;;;;;;;18.84;100.00;101215.41;5051035;28;20041;-57
2023/09/13 00:33:20;;;;;;;29.08;24.55;;;;;;;18.81;100.00;101218.41;5049882;28;20024;-59
2023/09/13 00:35:46;;;;;;;29.45;26.35;;;;;;;18.78;100.00;101213.34;5053572;28;20100;-58
2023/09/13 00:38:11;;;;;;;30.85;25.65;;;;;;;18.76;100.00;101218.03;5053757;28;20029;-57
2023/09/13 00:40:37;;;;;;;30.08;25.13;;;;;;;18.74;100.00;101219.22;5055009;28;20044;-58
2023/09/13 00:43:02;;;;;;;28.92;24.80;;;;;;;18.73;100.00;101225.59;5055149;28;20049;-59
2023/09/13 00:45:30;;;;;;;31.63;26.67;;;;;;;18.65;100.00;101211.13;5050563;28;20029;-58
2023/09/13 00:47:55;;;;;;;28.10;25.20;;;;;;;18.75;100.00;101220.91;5047592;28;20391;-58
2023/09/13 00:50:21;;;;;;;29.58;26.05;;;;;;;18.72;100.00;101216.69;5048949;28;20029;-58
2023/09/13 00:52:47;;;;;;;31.52;27.27;;;;;;;18.69;100.00;101217.00;5054181;28;20112;-58
2023/09/13 00:55:14;;;;;;;30.70;27.27;;;;;;;18.68;100.00;101221.56;5051927;28;20036;-58
2023/09/13 00:57:39;;;;;;;31.45;28.05;;;;;;;18.70;100.00;101223.22;5051696;28;20028;-58
2023/09/13 01:00:09;;;;;;;35.83;29.15;;;;;;;18.67;100.00;101217.16;5051842;28;20029;-59
2023/09/13 01:02:37;;;;;;;34.97;28.30;;;;;;;18.69;100.00;101222.41;5046557;28;20033;-58
2023/09/13 01:05:04;;;;;;;39.17;29.75;;;;;;;18.67;100.00;101217.16;5046495;28;20033;-58
2023/09/13 01:07:29;;;;;;;35.30;30.15;;;;;;;18.66;100.00;101211.94;5049033;28;20063;-58
2023/09/13 01:09:55;;;;;;;34.90;31.08;;;;;;;18.64;100.00;101219.34;5047736;28;20518;-58
2023/09/13 01:12:22;;;;;;;38.83;31.42;;;;;;;18.62;100.00;101219.50;5047215;28;20029;-59
2023/09/13 01:14:48;;;;;;;34.25;29.83;;;;;;;18.60;100.00;101213.44;5037849;28;20593;-57
2023/09/13 01:17:16;;;;;;;36.33;30.65;;;;;;;18.59;100.00;101216.31;5042717;28;20040;-58
2023/09/13 01:20:05;;;;;;;39.85;31.88;;;;;;;18.62;100.00;101210.59;5042663;28;20029;-58
2023/09/13 01:22:33;;;;;;;36.45;30.02;;;;;;;18.59;100.00;101210.91;5047642;28;20099;-58
2023/09/13 01:25:07;;;;;;;37.85;31.52;;;;;;;18.58;100.00;101215.44;5054094;28;20024;-58
2023/09/13 01:27:47;;;;;;;38.75;31.48;;;;;;;18.56;100.00;101206.69;5049507;28;20033;-58
2023/09/13 01:30:14;;;;;;;35.45;30.17;;;;;;;18.56;100.00;101211.25;5042645;28;20025;-57
2023/09/13 01:32:43;;;;;;;40.17;30.55;;;;;;;18.50;100.00;101215.41;5042526;28;20029;-58
2023/09/13 01:35:08;;;;;;;37.95;33.08;;;;;;;18.50;100.00;101215.41;5051573;28;20532;-58
2023/09/13 01:37:34;;;;;;;43.53;34.55;;;;;;;18.47;100.00;101226.50;5047099;28;20026;-58
2023/09/13 01:40:00;;;;;;;44.20;35.00;;;;;;;18.44;100.00;101219.59;5048649;28;20013;-58
2023/09/13 01:42:26;;;;;;;44.58;35.50;;;;;;;18.41;100.00;101222.59;5057537;28;20014;-58
2023/09/13 01:44:52;;;;;;;42.90;35.67;;;;;;;18.37;100.00;101221.22;5052880;28;20055;-58
2023/09/13 01:47:19;;;;;;;45.08;36.95;;;;;;;18.35;100.00;101222.38;5050742;28;20025;-57
2023/09/13 01:49:46;;;;;;;49.15;37.88;;;;;;;18.36;100.00;101229.47;5044353;28;20506;-58
2023/09/13 01:52:11;;;;;;;42.72;36.40;;;;;;;18.34;100.00;101234.16;5048151;28;20025;-58
2023/09/13 01:54:37;;;;;;;45.53;37.33;;;;;;;18.33;100.00;101232.47;5050908;28;20033;-58
2023/09/13 01:57:02;;;;;;;46.67;38.03;;;;;;;18.31;100.00;101238.00;5049493;28;20049;-58
2023/09/13 01:59:28;;;;;;;49.95;37.92;;;;;;;18.30;100.00;101233.59;5048320;28;20083;-58
2023/09/13 02:01:53;;;;;;;50.65;41.20;;;;;;;18.24;100.00;101234.25;5048632;28;20490;-58
2023/09/13 02:04:19;;;;;;;51.53;40.92;;;;;;;18.24;100.00;101237.78;5054184;28;20487;-58
2023/09/13 02:06:44;;;;;;;51.38;40.72;;;;;;;18.23;100.00;101241.47;5048664;28;20562;-59
2023/09/13 02:09:10;;;;;;;52.30;41.50;;;;;;;18.20;100.00;101240.94;5047867;28;20037;-58
2023/09/13 02:11:35;;;;;;;50.40;40.95;;;;;;;18.23;100.00;101254.91;5048289;28;20120;-57
2023/09/13 02:14:01;;;;;;;58.08;44.78;;;;;;;18.18;100.00;101248.31;5051397;28;20052;-57
2023/09/13 02:16:26;;;;;;;54.95;42.97;;;;;;;18.17;100.00;101249.31;5050186;28;20107;-59
2023/09/13 02:18:51;;;;;;;54.05;42.83;;;;;;;18.19;100.00;101258.94;5049001;28;20109;-58
2023/09/13 02:21:17;;;;;;;62.60;45.83;;;;;;;18.15;100.00;101246.78;5049645;28;20017;-58
2023/09/13 02:23:43;;;;;;;57.97;46.05;;;;;;;18.12;100.00;101255.19;5048688;28;20060;-58
2023/09/13 02:26:21;;;;;;;60.47;47.53;;;;;;;18.14;100.00;101261.25;5049100;28;20467;-56
2023/09/13 02:28:47;;;;;;;69.88;50.40;;;;;;;18.14;100.00;101263.94;5043633;28;20502;-58
2023/09/13 02:31:12;;;;;;;70.55;50.47;;;;;;;18.11;100.00;101265.06;5048570;28;20020;-59
2023/09/13 02:33:38;;;;;;;72.40;50.33;;;;;;;18.10;100.00;101252.66;5043514;28;20477;-58
2023/09/13 02:36:03;;;;;;;74.38;53.15;;;;;;;18.12;100.00;101260.56;5048676;28;20612;-59
2023/09/13 02:38:28;;;;;;;72.32;51.70;;;;;;;18.12;100.00;101258.72;5046154;28;20018;-57
2023/09/13 02:40:54;;;;;;;74.30;52.00;;;;;;;18.11;100.00;101262.38;5040364;28;20064;-58
2023/09/13 02:43:19;;;;;;;72.20;52.80;;;;;;;18.10;100.00;101258.03;5046290;28;20049;-58
2023/09/13 02:45:44;;;;;;;68.40;51.10;;;;;;;18.10;100.00;101258.03;5047696;28;20353;-58
2023/09/13 02:48:09;;;;;;;70.20;50.58;;;;;;;18.09;100.00;101263.56;5044868;28;20025;-58
2023/09/13 02:50:40;;;;;;;69.10;48.33;;;;;;;18.06;100.00;101255.81;5047680;28;20509;-58
2023/09/13 02:53:05;;;;;;;67.72;49.70;;;;;;;18.04;100.00;101263.19;5053123;28;20521;-58
2023/09/13 02:55:30;;;;;;;69.32;48.63;;;;;;;18.03;100.00;101259.63;5046201;28;20116;-58
2023/09/13 02:57:56;;;;;;;61.50;47.40;;;;;;;18.02;100.00;101266.03;5048876;28;20023;-58
2023/09/13 03:00:21;;;;;;;64.60;49.75;;;;;;;17.99;100.00;101260.97;5048971;28;20017;-58
2023/09/13 03:02:46;;;;;;;66.50;48.95;;;;;;;17.99;100.00;101262.81;5043268;28;20029;-58
2023/09/13 03:05:12;;;;;;;61.80;46.88;;;;;;;17.99;100.00;101268.19;5048907;28;20373;-58
2023/09/13 03:07:37;;;;;;;66.68;48.28;;;;;;;17.97;100.00;101273.72;5061478;28;20513;-58
2023/09/13 03:10:02;;;;;;;68.20;48.05;;;;;;;17.96;100.00;101272.03;5052107;28;20047;-59
2023/09/13 03:12:28;;;;;;;67.15;49.28;;;;;;;17.93;100.00;101273.16;5057626;28;20033;-58
2023/09/13 03:14:56;;;;;;;63.75;48.05;;;;;;;17.90;100.00;101270.81;5057776;28;20372;-58
2023/09/13 03:17:21;;;;;;;61.88;47.88;;;;;;;17.91;100.00;101272.47;5049844;28;20063;-58
2023/09/13 03:19:46;;;;;;;64.65;47.88;;;;;;;17.92;100.00;101278.72;5055477;28;20507;-58
2023/09/13 03:22:11;;;;;;;62.43;46.63;;;;;;;17.90;100.00;101278.88;5046234;28;20498;-58
2023/09/13 03:24:37;;;;;;;64.85;47.38;;;;;;;17.91;100.00;101277.84;5052662;28;20271;-57
2023/09/13 03:27:02;;;;;;;67.05;49.33;;;;;;;17.88;100.00;101275.47;5048860;28;20033;-57
2023/09/13 03:29:28;;;;;;;62.85;46.90;;;;;;;17.90;100.00;101278.00;5054216;28;20442;-58
2023/09/13 03:31:53;;;;;;;71.03;47.75;;;;;;;17.89;100.00;101276.34;5051327;28;20065;-58
2023/09/13 03:34:18;;;;;;;63.75;47.47;;;;;;;17.90;100.00;101278.88;5051590;28;20033;-58
2023/09/13 03:36:44;;;;;;;68.57;48.53;;;;;;;17.90;100.00;101286.06;5050356;28;20382;-59
2023/09/13 03:39:09;;;;;;;65.43;47.90;;;;;;;17.90;100.00;101289.63;5055990;28;20079;-59
2023/09/13 03:41:34;;;;;;;65.22;46.45;;;;;;;17.93;100.00;101291.97;5056319;28;20056;-57
2023/09/13 03:44:00;;;;;;;66.30;48.17;;;;;;;17.90;100.00;101295.00;5056627;28;20451;-57
2023/09/13 03:46:25;;;;;;;71.68;49.05;;;;;;;17.91;100.00;101299.34;5055954;28;20523;-58
2023/09/13 03:48:50;;;;;;;76.10;50.20;;;;;;;17.90;100.00;101289.63;5050128;28;20051;-58
2023/09/13 03:51:16;;;;;;;76.90;51.70;;;;;;;17.91;100.00;101287.78;5062541;28;20075;-58
2023/09/13 03:53:41;;;;;;;72.95;49.38;;;;;;;17.90;100.00;101288.75;5046915;28;20025;-57
2023/09/13 03:56:07;;;;;;;69.53;48.33;;;;;;;17.91;100.00;101287.78;5056965;28;20135;-58
2023/09/13 03:58:34;;;;;;;67.60;49.05;;;;;;;17.92;100.00;101292.16;5053961;28;20551;-59
2023/09/13 04:00:59;;;;;;;73.97;50.22;;;;;;;17.92;100.00;101278.72;5057845;28;20024;-58
2023/09/13 04:03:25;;;;;;;69.15;49.60;;;;;;;17.91;100.00;101283.22;5050717;28;20032;-58
2023/09/13 04:05:52;;;;;;;70.07;49.85;;;;;;;17.91;100.00;101285.09;5051885;28;20094;-57
2023/09/13 04:08:17;;;;;;;64.43;47.08;;;;;;;17.92;100.00;101282.25;5051040;28;20169;-59
2023/09/13 04:10:42;;;;;;;71.07;47.78;;;;;;;17.92;100.00;101278.72;5054341;28;20037;-58
2023/09/13 04:13:08;;;;;;;63.28;47.28;;;;;;;17.92;100.00;101281.41;5055019;28;20449;-58
2023/09/13 04:15:33;;;;;;;70.03;49.30;;;;;;;17.90;100.00;101284.25;5055557;28;20112;-58
2023/09/13 04:17:58;;;;;;;64.70;46.67;;;;;;;17.90;100.00;101286.94;5051544;28;20017;-58
2023/09/13 04:20:24;;;;;;;64.60;45.97;;;;;;;17.88;100.00;101291.59;5050012;28;20021;-58
2023/09/13 04:22:49;;;;;;;66.35;45.80;;;;;;;17.88;100.00;101290.75;5046368;28;20029;-58
2023/09/13 04:25:15;;;;;;;66.93;46.45;;;;;;;17.87;100.00;101289.94;5055226;28;20025;-58
2023/09/13 04:27:47;;;;;;;62.40;45.55;;;;;;;17.87;100.00;101291.75;5055108;28;20480;-60
2023/09/13 04:30:14;;;;;;;63.95;44.60;;;;;;;17.86;100.00;101296.25;5052064;28;20044;-58
2023/09/13 04:32:39;;;;;;;65.05;45.13;;;;;;;17.88;100.00;101294.28;5047695;28;20395;-58
2023/09/13 04:35:05;;;;;;;63.95;44.38;;;;;;;17.86;100.00;101296.25;5049742;28;20025;-58
2023/09/13 04:37:30;;;;;;;63.72;45.25;;;;;;;17.88;100.00;101293.44;5050425;28;20395;-59
2023/09/13 04:39:57;;;;;;;59.58;43.25;;;;;;;17.86;100.00;101295.41;5054880;28;20053;-59
2023/09/13 04:42:22;;;;;;;62.75;44.65;;;;;;;17.88;100.00;101302.34;5051615;28;20045;-58
2023/09/13 04:44:48;;;;;;;60.60;44.83;;;;;;;17.89;100.00;101295.16;5055485;28;20533;-58
2023/09/13 04:47:13;;;;;;;62.00;44.33;;;;;;;17.87;100.00;101300.69;5044128;28;20509;-58
2023/09/13 04:49:38;;;;;;;63.75;44.08;;;;;;;17.84;100.00;101298.25;5052569;28;20064;-58
2023/09/13 04:52:06;;;;;;;60.45;44.00;;;;;;;17.87;100.00;101303.38;5051106;28;20033;-58
2023/09/13 04:54:31;;;;;;;64.30;44.17;;;;;;;17.84;100.00;101292.06;5051719;28;20167;-58
2023/09/13 04:56:56;;;;;;;61.58;43.00;;;;;;;17.85;100.00;101297.28;5048978;28;20124;-58
2023/09/13 04:59:25;;;;;;;64.10;44.38;;;;;;;17.83;100.00;101298.41;5048650;28;20109;-58
2023/09/13 05:01:50;;;;;;;61.78;42.53;;;;;;;17.85;100.00;101302.66;5053216;28;20045;-58
2023/09/13 05:04:16;;;;;;;57.60;41.92;;;;;;;17.86;100.00;101301.63;5052308;28;20033;-59
2023/09/13 05:06:41;;;;;;;59.88;43.53;;;;;;;17.85;100.00;101310.72;5048782;28;20028;-59
2023/09/13 05:09:06;;;;;;;57.95;42.40;;;;;;;17.84;100.00;101311.69;5045229;28;20032;-57
2023/09/13 05:11:31;;;;;;;53.83;41.05;;;;;;;17.81;100.00;101313.84;5038119;28;20068;-58
2023/09/13 05:14:13;;;;;;;62.40;41.88;;;;;;;17.85;100.00;101320.59;5045613;28;20075;-58
2023/09/13 05:16:39;;;;;;;55.55;40.47;;;;;;;17.82;100.00;101307.47;5047328;28;20017;-56
2023/09/13 05:19:04;;;;;;;55.25;42.38;;;;;;;17.82;100.00;101318.22;5044787;28;20529;-58
2023/09/13 05:21:29;;;;;;;60.80;44.70;;;;;;;17.80;100.00;101312.97;5045047;28;20504;-58
2023/09/13 05:23:55;;;;;;;54.47;41.60;;;;;;;17.79;100.00;101308.63;5040189;28;20075;-58
2023/09/13 05:26:20;;;;;;;60.55;43.17;;;;;;;17.77;100.00;101307.94;5053466;28;20041;-58
2023/09/13 05:28:45;;;;;;;53.83;40.40;;;;;;;17.73;100.00;101307.38;5051089;28;20030;-58
2023/09/13 05:31:11;;;;;;;56.75;41.50;;;;;;;17.73;100.00;101307.38;5047909;28;20028;-58
2023/09/13 05:33:36;;;;;;;54.60;41.17;;;;;;;17.70;100.00;101306.84;5047814;28;20498;-57
2023/09/13 05:36:10;;;;;;;57.95;42.63;;;;;;;17.67;100.00;101309.84;5045036;28;20033;-57
2023/09/13 05:38:35;;;;;;;53.17;41.28;;;;;;;17.68;100.00;101308.84;5048193;28;20029;-57
2023/09/13 05:41:07;;;;;;;59.80;43.22;;;;;;;17.68;100.00;101319.59;5043827;28;20044;-57
2023/09/13 05:43:37;;;;;;;56.35;41.13;;;;;;;17.68;100.00;101328.50;5046591;28;20042;-58
2023/09/13 05:46:02;;;;;;;60.45;42.45;;;;;;;17.68;100.00;101325.81;5052180;28;20025;-56
2023/09/13 05:48:28;;;;;;;54.13;42.58;;;;;;;17.69;100.00;101332.88;5053517;28;20048;-56
2023/09/13 05:50:54;;;;;;;55.58;41.45;;;;;;;17.70;100.00;101333.72;5037996;28;20463;-58
2023/09/13 05:53:19;;;;;;;55.13;41.63;;;;;;;17.73;100.00;101339.63;5051792;28;20037;-58
2023/09/13 05:55:45;;;;;;;56.88;40.72;;;;;;;17.70;100.00;101342.63;5036681;28;20029;-57
2023/09/13 05:58:11;;;;;;;56.67;42.85;;;;;;;17.75;100.00;101345.72;5043837;28;20037;-58
2023/09/13 06:00:36;;;;;;;57.38;41.55;;;;;;;17.73;100.00;101347.69;5050427;28;20021;-53
2023/09/13 06:03:02;;;;;;;56.22;41.25;;;;;;;17.74;100.00;101351.22;5047788;28;20502;-54
2023/09/13 06:05:27;;;;;;;52.70;39.72;;;;;;;17.72;100.00;101350.56;5038764;28;20029;-56
2023/09/13 06:07:53;;;;;;;54.92;40.28;;;;;;;17.73;100.00;101353.06;5047077;28;20109;-57
2023/09/13 06:10:18;;;;;;;51.65;39.55;;;;;;;17.71;100.00;101360.44;5051125;28;20033;-56
2023/09/13 06:12:43;;;;;;;50.80;36.97;;;;;;;17.74;100.00;101360.13;5052752;28;20033;-56
2023/09/13 06:15:09;;;;;;;49.60;38.38;;;;;;;17.76;100.00;101365.34;5050022;28;20614;-57
2023/09/13 06:17:36;;;;;;;51.65;36.83;;;;;;;17.75;100.00;101371.72;5043386;28;20041;-57
2023/09/13 06:20:04;;;;;;;49.60;37.83;;;;;;;17.76;100.00;101376.09;5054529;28;20029;-57
2023/09/13 06:22:29;;;;;;;52.15;37.70;;;;;;;17.76;100.00;101382.31;5039440;28;20037;-58
2023/09/13 06:24:54;;;;;;;50.00;37.20;;;;;;;17.76;100.00;101379.63;5047852;28;20379;-58
2023/09/13 06:27:20;;;;;;;53.15;38.28;;;;;;;17.79;100.00;101389.25;5041261;28;20032;-57
2023/09/13 06:29:45;;;;;;;47.95;36.53;;;;;;;17.81;100.00;101391.78;5042606;28;20032;-57
2023/09/13 06:32:11;;;;;;;47.42;36.30;;;;;;;17.83;100.00;101395.16;5039273;28;20039;-58
2023/09/13 06:34:37;;;;;;;47.63;36.72;;;;;;;17.84;100.00;101386.09;5042332;28;20128;-57
2023/09/13 06:37:02;;;;;;;47.33;36.28;;;;;;;17.89;100.00;101387.34;5045298;28;20017;-54
2023/09/13 06:39:28;;;;;;;51.72;36.38;;;;;;;17.90;100.00;101389.06;5049158;28;20545;-54
2023/09/13 06:41:53;;;;;;;46.92;36.13;;;;;;;17.92;100.00;101383.53;5047458;28;20033;-56
2023/09/13 06:44:18;;;;;;;44.58;34.03;;;;;;;17.94;100.00;101398.50;5045913;28;20418;-56
2023/09/13 06:46:44;;;;;;;46.73;31.47;;;;;;;17.96;100.00;101405.56;5045040;28;20037;-57
2023/09/13 06:49:09;;;;;;;46.33;33.42;;;;;;;17.95;100.00;101399.31;5046318;28;20319;-57
2023/09/13 06:51:34;;;;;;;45.25;34.30;;;;;;;17.94;100.00;101403.88;5039475;28;20033;-56
2023/09/13 06:53:59;;;;;;;45.83;33.30;;;;;;;17.98;100.00;101407.09;5035604;28;20464;-58
2023/09/13 06:56:25;;;;;;;44.08;34.28;;;;;;;18.01;100.00;101405.94;5039467;28;20112;-57
2023/09/13 06:58:52;;;;;;;47.13;35.70;;;;;;;18.02;100.00;101410.31;5038418;28;20044;-58
2023/09/13 07:01:17;;;;;;;51.92;37.22;;;;;;;18.03;100.00;101420.91;5038188;28;20018;-57
2023/09/13 07:03:42;;;;;;;48.50;35.90;;;;;;;18.06;100.00;101411.72;5040407;28;20036;-57
2023/09/13 07:06:08;;;;;;;52.63;37.00;;;;;;;18.10;100.00;101419.31;5037096;28;20071;-58
2023/09/13 07:08:33;;;;;;;52.38;37.47;;;;;;;18.13;100.00;101418.16;5036328;28;20448;-56
2023/09/13 07:10:58;;;;;;;51.65;36.38;;;;;;;18.17;100.00;101427.63;5043880;28;20035;-58
2023/09/13 07:13:25;;;;;;;50.42;36.92;;;;;;;18.22;100.00;101432.50;5042020;28;20076;-58
2023/09/13 07:15:50;;;;;;;48.97;36.85;;;;;;;18.21;100.00;101429.00;5045729;28;20091;-57
2023/09/13 07:18:17;;;;;;;53.92;36.75;;;;;;;18.26;100.00;101432.06;5038022;28;20467;-58
2023/09/13 07:20:42;;;;;;;54.17;36.75;;;;;;;18.33;100.00;101426.06;5044241;28;20022;-59
2023/09/13 07:23:07;;;;;;;48.50;35.87;;;;;;;18.37;100.00;101428.31;5045501;28;20063;-57
2023/09/13 07:25:33;;;;;;;48.00;36.08;;;;;;;18.45;100.00;101430.22;5036622;28;20362;-57
2023/09/13 07:27:59;;;;;;;48.42;35.67;;;;;;;18.47;100.00;101433.63;5040584;28;20027;-57
2023/09/13 07:30:25;;;;;;;51.28;35.55;;;;;;;18.52;100.00;101438.50;5038150;28;20036;-58
2023/09/13 07:32:50;;;;;;;49.42;35.78;;;;;;;18.57;100.00;101436.19;5039718;28;20025;-58
2023/09/13 07:35:16;;;;;;;51.03;35.88;;;;;;;18.62;100.00;101436.59;5040383;28;20044;-57
2023/09/13 07:37:41;;;;;;;47.55;35.63;;;;;;;18.58;100.00;101446.78;5049873;28;20470;-57
2023/09/13 07:40:07;;;;;;;45.83;34.60;;;;;;;18.58;100.00;101451.34;5042427;28;20376;-57
2023/09/13 07:42:32;;;;;;;53.35;34.95;;;;;;;18.59;100.00;101448.50;5046931;28;20047;-57
2023/09/13 07:44:58;;;;;;;49.25;35.60;;;;;;;18.59;100.00;101444.97;5044427;28;20094;-56
2023/09/13 07:47:23;;;;;;;44.92;33.80;;;;;;;18.61;100.00;101451.03;5047739;28;20056;-57
2023/09/13 07:49:49;;;;;;;47.15;34.33;;;;;;;18.61;100.00;101457.25;5045455;28;20053;-57
2023/09/13 07:52:14;;;;;;;51.13;34.08;;;;;;;18.63;100.00;101463.31;5049672;28;20029;-55
2023/09/13 07:54:40;;;;;;;29.20;22.35;;;;;;;18.52;100.00;101462.72;5050952;28;20509;-55
2023/09/13 07:57:06;;;;;;;15.55;11.68;;;;;;;18.36;100.00;101483.09;5050251;28;20071;-56
2023/09/13 07:59:31;;;;;;;13.30;8.20;;;;;;;18.26;100.00;101493.91;5048465;28;20045;-56
2023/09/13 08:01:56;;;;;;;7.35;4.60;;;;;;;18.18;100.00;101493.81;5044753;28;20163;-57
2023/09/13 08:04:22;;;;;;;6.97;4.07;;;;;;;18.17;100.00;101500.22;5045356;28;20059;-57
2023/09/13 08:06:47;;;;;;;5.07;3.25;;;;;;;18.09;100.00;101495.56;5048019;28;20459;-56
2023/09/13 08:09:16;;;;;;;4.50;2.58;;;;;;;18.07;100.00;101504.81;5056158;28;20021;-57
2023/09/13 08:11:42;;;;;;;4.18;2.00;;;;;;;18.02;100.00;101507.94;5052322;28;20357;-57
2023/09/13 08:14:07;;;;;;;2.83;1.60;;;;;;;18.02;100.00;101520.50;5051949;28;20025;-58
2023/09/13 08:16:34;;;;;;;3.00;1.30;;;;;;;17.99;100.00;101524.38;5038933;28;20036;-58
2023/09/13 08:18:59;;;;;;;2.50;1.88;;;;;;;17.96;100.00;101532.72;5044409;28;20044;-58
2023/09/13 08:21:24;;;;;;;1.40;1.20;;;;;;;17.91;100.00;101532.31;5041460;28;20483;-56
2023/09/13 08:23:50;;;;;;;1.98;1.30;;;;;;;17.89;100.00;101534.31;5045689;28;20033;-58
2023/09/13 08:26:16;;;;;;;1.75;1.15;;;;;;;17.85;100.00;101544.50;5047646;28;20075;-57
2023/09/13 08:28:42;;;;;;;3.50;1.25;;;;;;;17.84;100.00;101558.91;5042583;28;20400;-57
2023/09/13 08:31:07;;;;;;;3.72;1.30;;;;;;;17.87;100.00;101561.34;5045938;28;20128;-58
2023/09/13 08:33:33;;;;;;;1.60;1.23;;;;;;;17.88;100.00;101560.31;5052873;28;20032;-58
2023/09/13 08:35:58;;;;;;;1.30;1.20;;;;;;;17.88;100.00;101568.41;5047321;28;20013;-57
2023/09/13 08:38:24;;;;;;;2.50;1.20;;;;;;;17.84;100.00;101572.34;5051448;28;20047;-60
2023/09/13 08:40:51;;;;;;;3.53;1.30;;;;;;;17.86;100.00;101574.88;5054150;28;20059;-57
2023/09/13 08:43:18;;;;;;;2.10;1.10;;;;;;;17.87;100.00;101590.03;5047551;28;20045;-58
2023/09/13 08:45:45;;;;;;;2.72;1.00;;;;;;;17.87;100.00;101592.72;5047374;28;20021;-58
2023/09/13 08:48:11;;;;;;;1.48;0.98;;;;;;;17.78;100.00;101594.44;5042537;28;20074;-57
2023/09/13 08:50:39;;;;;;;1.35;1.10;;;;;;;17.72;100.00;101614.69;5047720;28;20106;-57
2023/09/13 08:53:06;;;;;;;3.10;1.00;;;;;;;17.76;100.00;101613.38;5048143;28;20114;-59
2023/09/13 08:55:32;;;;;;;2.80;0.90;;;;;;;17.78;100.00;101615.91;5050831;28;20386;-58
2023/09/13 08:57:59;;;;;;;3.95;1.33;;;;;;;17.74;100.00;101620.75;5050652;28;20038;-57
2023/09/13 09:00:28;;;;;;;0.93;0.82;;;;;;;17.84;100.00;101636.84;5046526;28;20032;-58
2023/09/13 09:02:54;;;;;;;;;;;;;;;17.97;100.00;101638.38;5041487;28;20048;-58
2023/09/13 09:05:22;;;;;;;1.27;0.93;;;;;;;17.90;100.00;101633.63;5046980;28;19972;-59
2023/09/13 09:07:48;;;;;;;1.02;0.95;;;;;;;17.93;100.00;101635.97;5043623;28;20059;-58
2023/09/13 09:10:15;;;;;;;0.90;0.90;;;;;;;17.96;100.00;101647.47;5049203;28;20029;-56
2023/09/13 09:12:43;;;;;;;0.75;0.73;;;;;;;18.01;100.00;101654.06;5042153;28;20539;-58
2023/09/13 09:15:11;;;;;;;0.80;0.77;;;;;;;18.05;100.00;101654.63;5044857;28;20030;-57
2023/09/13 09:17:37;;;;;;;1.70;1.10;;;;;;;18.04;100.00;101658.31;5048176;28;20033;-59
2023/09/13 09:20:02;;;;;;;1.75;0.98;;;;;;;17.99;100.00;101657.91;5045532;28;20448;-55
2023/09/13 09:22:29;;;;;;;3.35;1.10;;;;;;;17.96;99.18;101671.66;5042430;28;20052;-56
2023/09/13 09:24:57;;;;;;;4.32;1.20;;;;;;;17.89;99.45;101674.91;5049301;28;20021;-57
2023/09/13 09:27:22;;;;;;;2.95;0.85;;;;;;;17.81;99.48;101680.13;5042627;28;20364;-57
2023/09/13 09:29:59;;;;;;;1.48;1.00;;;;;;;17.83;99.56;101682.66;5040037;28;20143;-57
2023/09/13 09:32:27;;;;;;;1.63;0.90;;;;;;;17.87;98.47;101694.84;5043607;28;20434;-55
2023/09/13 09:34:54;;;;;;;2.17;1.13;;;;;;;17.88;97.81;101689.31;5046287;28;20052;-57
2023/09/13 09:37:28;;;;;;;1.70;1.08;;;;;;;17.81;98.26;101679.28;5042964;28;20024;-58
2023/09/13 09:39:54;;;;;;;2.35;1.08;;;;;;;17.90;98.68;101690.06;5048364;28;20039;-58
2023/09/13 09:42:19;;;;;;;1.00;0.90;;;;;;;17.97;97.21;101684.94;5043367;28;20103;-58
2023/09/13 09:44:45;;;;;;;2.03;0.95;;;;;;;18.08;97.21;101691.97;5049062;28;20049;-54
2023/09/13 09:47:12;;;;;;;1.95;0.85;;;;;;;18.17;96.87;101701.00;5042068;28;20042;-55
2023/09/13 09:49:37;;;;;;;1.70;1.10;;;;;;;18.15;94.40;101701.13;5050251;28;20376;-55
2023/09/13 09:52:03;;;;;;;1.65;1.20;;;;;;;18.20;94.66;101698.88;5045223;28;20024;-58
2023/09/13 09:54:29;;;;;;;0.82;0.63;;;;;;;18.31;97.00;101696.00;5045054;28;20080;-58
2023/09/13 09:56:54;;;;;;;1.88;1.10;;;;;;;18.47;95.54;101703.44;5048358;28;20028;-57
2023/09/13 09:59:19;;;;;;;2.63;1.23;;;;;;;18.57;94.08;101703.41;5049370;28;20083;-57
2023/09/13 10:01:46;;;;;;;2.63;1.10;;;;;;;18.61;91.35;101699.41;5038192;28;20530;-56
2023/09/13 10:04:12;;;;;;;1.75;1.20;;;;;;;18.66;92.96;101698.97;5046597;28;20116;-56
2023/09/13 10:06:55;;;;;;;2.22;1.30;;;;;;;18.93;94.73;101698.09;5044508;28;20295;-58
2023/09/13 10:09:21;;;;;;;4.63;1.13;;;;;;;19.14;91.98;101707.78;5044405;28;20040;-57
2023/09/13 10:11:46;;;;;;;1.23;1.05;;;;;;;19.40;89.89;101719.47;5048937;28;20048;-56
2023/09/13 10:14:25;;;;;;;5.05;1.40;;;;;;;19.63;88.84;101721.66;5057864;28;20103;-56
2023/09/13 10:16:52;;;;;;;2.33;1.20;;;;;;;19.88;86.81;101724.59;5037636;28;20038;-58
2023/09/13 10:19:21;;;;;;;1.35;1.15;;;;;;;19.87;83.25;101722.94;5050002;28;20442;-57
2023/09/13 10:21:47;;;;;;;1.65;1.20;;;;;;;19.94;82.21;101723.97;5046083;28;20454;-57
2023/09/13 10:24:17;;;;;;;1.52;1.30;;;;;;;20.05;84.33;101725.56;5038746;28;20033;-58
2023/09/13 10:26:45;;;;;;;2.17;1.30;;;;;;;20.23;82.55;101737.13;5054532;28;20024;-56
2023/09/13 10:29:15;;;;;;;1.38;0.98;;;;;;;20.50;83.96;101732.56;5048039;28;21146;-58
2023/09/13 10:31:46;;;;;;;2.10;1.40;;;;;;;20.79;82.13;101725.97;5044533;28;20112;-59
2023/09/13 10:34:25;;;;;;;2.13;1.23;;;;;;;21.07;83.12;101729.25;5048752;28;20039;-58
2023/09/13 10:37:07;;;;;;;1.48;1.27;;;;;;;21.25;78.68;101742.66;5045024;28;20036;-58
2023/09/13 10:39:41;;;;;;;2.42;1.15;;;;;;;21.58;79.68;101748.97;5042772;28;20041;-56
2023/09/13 10:42:07;;;;;;;1.75;1.08;;;;;;;21.65;77.83;101745.56;5040686;28;20530;-57
2023/09/13 10:44:37;;;;;;;1.95;1.45;;;;;;;21.75;77.19;101752.50;5055630;28;20060;-53
2023/09/13 10:47:07;;;;;;;2.15;1.50;;;;;;;21.76;77.52;101762.31;5041965;28;20029;-57
2023/09/13 10:49:33;;;;;;;2.47;1.20;;;;;;;21.80;77.14;101763.66;5038081;28;20079;-56
2023/09/13 10:51:59;;;;;;;2.33;0.95;;;;;;;21.71;76.04;101777.34;5043950;28;20071;-57
2023/09/13 10:54:25;;;;;;;3.30;1.35;;;;;;;21.69;76.34;101772.09;5051291;28;20032;-54
2023/09/13 10:56:52;;;;;;;2.47;1.10;;;;;;;21.67;75.47;101767.91;5040338;28;20479;-57
2023/09/13 10:59:20;;;;;;;1.50;1.00;;;;;;;21.66;74.81;101775.16;5037950;28;20029;-57
2023/09/13 11:01:46;;;;;;;2.27;1.20;;;;;;;21.64;75.21;101784.44;5042005;28;20030;-54
2023/09/13 11:04:15;;;;;;;2.65;1.30;;;;;;;21.61;73.85;101783.75;5049691;28;20062;-56